Time;durP1;ratioP1;P1;durP2;ratioP2;P2;SDS_P1;SDS_P2;PMS_P1;PMS_P2;Temp;Humidity;BMP_temperature;BMP_pressure;BME280_temperature;BME280_humidity;BME280_pressure;Samples;Min_cycle;Max_cycle;Signal;HPM_P1;HPM_P2
2023/04/19 00:00:40;;;;;;;3.15;2.85;;;19.00;53.40;;;;;;5031691;28;20183;-70
2023/04/19 00:03:07;;;;;;;3.30;3.08;;;19.00;53.40;;;;;;5031353;28;20264;-70
2023/04/19 00:05:33;;;;;;;3.30;3.00;;;19.00;53.40;;;;;;5032641;28;20191;-70
2023/04/19 00:07:59;;;;;;;3.55;3.25;;;19.00;53.40;;;;;;5015125;28;20199;-70
2023/04/19 00:10:25;;;;;;;3.22;2.90;;;19.00;53.40;;;;;;5032762;28;20215;-70
2023/04/19 00:12:51;;;;;;;2.90;2.70;;;19.00;54.00;;;;;;5032550;28;20223;-70
2023/04/19 00:15:18;;;;;;;3.40;3.10;;;19.00;53.50;;;;;;5032829;28;20276;-70
2023/04/19 00:17:44;;;;;;;3.47;3.20;;;19.00;53.40;;;;;;5031438;28;20183;-70
2023/04/19 00:20:11;;;;;;;3.28;2.97;;;19.00;53.40;;;;;;5031561;28;20187;-70
2023/04/19 00:22:38;;;;;;;3.63;3.33;;;19.00;53.50;;;;;;5032229;28;20223;-70
2023/04/19 00:25:05;;;;;;;3.42;3.22;;;19.00;53.40;;;;;;5031488;28;20187;-70
2023/04/19 00:27:31;;;;;;;2.85;2.65;;;19.00;53.40;;;;;;5031565;28;20191;-70
2023/04/19 00:29:58;;;;;;;3.45;3.15;;;19.00;53.40;;;;;;5031508;28;20210;-70
2023/04/19 00:32:24;;;;;;;3.33;3.03;;;19.00;54.10;;;;;;5014948;28;20239;-70
2023/04/19 00:34:50;;;;;;;3.55;3.25;;;19.00;53.40;;;;;;5031418;28;20213;-70
2023/04/19 00:37:16;;;;;;;3.55;3.25;;;19.00;53.40;;;;;;5031223;28;20198;-70
2023/04/19 00:39:42;;;;;;;3.63;3.33;;;19.00;53.40;;;;;;5031075;28;20654;-70
2023/04/19 00:42:07;;;;;;;3.78;3.47;;;19.00;53.70;;;;;;5027945;28;20212;-70
2023/04/19 00:44:34;;;;;;;3.40;3.13;;;19.00;53.50;;;;;;5028995;28;20195;-70
2023/04/19 00:47:00;;;;;;;3.78;3.42;;;19.00;53.40;;;;;;5031341;28;20187;-70
2023/04/19 00:49:27;;;;;;;3.15;2.95;;;19.00;53.40;;;;;;5014780;28;20210;-70
2023/04/19 00:51:53;;;;;;;3.45;3.17;;;19.00;53.50;;;;;;5030723;28;20223;-70
2023/04/19 00:54:19;;;;;;;3.30;3.00;;;19.00;53.50;;;;;;5030582;28;20257;-70
2023/04/19 00:56:48;;;;;;;3.80;3.50;;;19.00;53.50;;;;;;5014728;28;20187;-70
2023/04/19 00:59:17;;;;;;;3.65;3.35;;;19.00;53.50;;;;;;5032178;28;20183;-70
2023/04/19 01:01:43;;;;;;;3.42;3.13;;;19.00;53.50;;;;;;5030987;28;20211;-70
2023/04/19 01:04:08;;;;;;;3.13;2.92;;;19.00;53.50;;;;;;5014670;28;20212;-70
2023/04/19 01:06:35;;;;;;;3.55;3.25;;;19.00;53.50;;;;;;5030582;28;20297;-70
2023/04/19 01:09:01;;;;;;;3.60;3.30;;;19.00;53.50;;;;;;5030801;28;20187;-70
2023/04/19 01:11:28;;;;;;;3.22;2.97;;;19.00;53.50;;;;;;5030834;28;20231;-70
2023/04/19 01:13:57;;;;;;;3.20;3.00;;;19.00;53.50;;;;;;5030846;28;20190;-70
2023/04/19 01:16:25;;;;;;;3.22;3.03;;;19.00;53.50;;;;;;5031114;28;20261;-70
2023/04/19 01:18:51;;;;;;;3.25;2.95;;;19.00;53.50;;;;;;5030857;28;20236;-70
2023/04/19 01:21:21;;;;;;;3.13;2.92;;;19.00;53.50;;;;;;5032424;28;20211;-70
2023/04/19 01:23:47;;;;;;;3.38;3.08;;;19.00;53.50;;;;;;5046139;28;20191;-70
2023/04/19 01:26:15;;;;;;;3.20;3.00;;;19.00;53.50;;;;;;5030963;28;20187;-70
2023/04/19 01:28:40;;;;;;;3.42;3.20;;;19.00;53.60;;;;;;5030397;28;20197;-70
2023/04/19 01:31:08;;;;;;;3.35;3.05;;;19.00;53.50;;;;;;5030891;28;20214;-70
2023/04/19 01:33:35;;;;;;;3.00;2.80;;;19.00;53.50;;;;;;5031578;28;20194;-70
2023/04/19 01:36:01;;;;;;;3.38;3.10;;;19.00;53.50;;;;;;5014274;28;20175;-70
2023/04/19 01:38:27;;;;;;;3.65;3.35;;;19.00;53.50;;;;;;5030544;28;20211;-70
2023/04/19 01:40:55;;;;;;;3.05;2.85;;;19.00;53.50;;;;;;5013739;28;20673;-70
2023/04/19 01:43:21;;;;;;;3.70;3.40;;;19.00;53.50;;;;;;5014052;28;20187;-69
2023/04/19 01:45:47;;;;;;;3.08;2.88;;;19.00;53.60;;;;;;5030490;28;20566;-70
2023/04/19 01:48:12;;;;;;;3.10;2.90;;;19.00;53.50;;;;;;5030648;28;20206;-70
2023/04/19 01:50:38;;;;;;;3.28;3.03;;;19.00;53.60;;;;;;5013683;28;20588;-70
2023/04/19 01:53:04;;;;;;;3.42;3.13;;;19.00;53.50;;;;;;5013901;28;20200;-70
2023/04/19 01:55:31;;;;;;;3.22;3.03;;;19.00;53.50;;;;;;5014443;28;20191;-70
2023/04/19 01:57:57;;;;;;;2.85;2.65;;;19.00;53.50;;;;;;5013965;28;20176;-70
2023/04/19 02:00:23;;;;;;;3.28;2.88;;;19.00;53.50;;;;;;5030311;28;20207;-70
2023/04/19 02:02:49;;;;;;;3.45;3.22;;;19.00;53.50;;;;;;5013412;28;20249;-70
2023/04/19 02:05:15;;;;;;;3.60;3.30;;;19.00;53.60;;;;;;5033209;28;20195;-70
2023/04/19 02:07:40;;;;;;;3.53;3.33;;;19.00;53.60;;;;;;5017643;28;20191;-70
2023/04/19 02:10:10;;;;;;;3.35;2.90;;;19.00;53.50;;;;;;5030903;28;20198;-70
2023/04/19 02:12:36;;;;;;;3.20;3.00;;;19.00;53.60;;;;;;5033385;28;20246;-70
2023/04/19 02:15:03;;;;;;;3.08;2.88;;;19.00;53.60;;;;;;5017288;28;20194;-70
2023/04/19 02:17:29;;;;;;;2.80;2.60;;;19.00;53.60;;;;;;5035222;28;20195;-69
2023/04/19 02:19:56;;;;;;;3.38;3.10;;;19.00;53.60;;;;;;5033727;28;20268;-70
2023/04/19 02:22:21;;;;;;;3.10;2.90;;;19.00;53.60;;;;;;5033684;28;20209;-70
2023/04/19 02:24:49;;;;;;;3.05;2.85;;;19.00;53.60;;;;;;5033850;28;20675;-70
2023/04/19 02:27:16;;;;;;;3.10;2.90;;;19.00;53.60;;;;;;5033716;28;20179;-69
2023/04/19 02:29:43;;;;;;;3.72;3.42;;;19.00;53.60;;;;;;5031215;28;20180;-70
2023/04/19 02:32:11;;;;;;;3.05;2.85;;;19.00;53.60;;;;;;5033360;28;20250;-70
2023/04/19 02:34:37;;;;;;;3.15;2.95;;;19.00;53.60;;;;;;5033682;28;20210;-70
2023/04/19 02:37:03;;;;;;;3.60;3.30;;;18.90;53.50;;;;;;5033457;28;20222;-70
2023/04/19 02:39:30;;;;;;;3.20;3.00;;;18.90;53.50;;;;;;5034623;28;20211;-70
2023/04/19 02:41:56;;;;;;;3.20;3.00;;;19.00;53.60;;;;;;5033324;28;20219;-70
2023/04/19 02:44:22;;;;;;;3.60;3.30;;;19.00;53.60;;;;;;5033195;28;20214;-70
2023/04/19 02:46:52;;;;;;;3.22;3.03;;;19.00;53.60;;;;;;5034511;28;20693;-70
2023/04/19 02:49:19;;;;;;;3.65;3.35;;;19.00;53.60;;;;;;5033194;28;20686;-70
2023/04/19 02:51:45;;;;;;;3.60;3.30;;;19.00;53.60;;;;;;5032983;28;20690;-70
2023/04/19 02:54:13;;;;;;;3.50;3.20;;;19.00;53.60;;;;;;5013513;28;20184;-70
2023/04/19 02:56:40;;;;;;;3.50;3.20;;;19.00;53.60;;;;;;5044223;28;20226;-70
2023/04/19 02:59:06;;;;;;;2.72;2.53;;;19.00;53.60;;;;;;5033165;28;20185;-70
2023/04/19 03:01:32;;;;;;;3.63;3.35;;;18.90;54.10;;;;;;5033109;28;20199;-70
2023/04/19 03:04:02;;;;;;;2.95;2.75;;;18.90;53.60;;;;;;5009134;28;20183;-70
2023/04/19 03:06:28;;;;;;;3.60;3.30;;;18.90;53.50;;;;;;5016763;28;20202;-70
2023/04/19 03:08:53;;;;;;;3.47;3.17;;;18.90;53.50;;;;;;5032618;28;20195;-70
2023/04/19 03:11:20;;;;;;;3.47;3.17;;;18.90;53.50;;;;;;5032638;28;20302;-70
2023/04/19 03:13:46;;;;;;;3.60;3.30;;;18.90;53.50;;;;;;5032588;28;20183;-70
2023/04/19 03:16:13;;;;;;;3.53;3.28;;;19.00;53.60;;;;;;5032142;28;20178;-70
2023/04/19 03:18:40;;;;;;;3.38;3.17;;;18.90;53.50;;;;;;5032889;28;20186;-70
2023/04/19 03:21:08;;;;;;;3.70;3.40;;;18.90;53.50;;;;;;5032631;28;20253;-70
2023/04/19 03:23:44;;;;;;;3.90;3.60;;;19.00;53.60;;;;;;5017333;28;20179;-70
2023/04/19 03:26:10;;;;;;;3.58;3.28;;;18.90;53.50;;;;;;5032883;28;20279;-70
2023/04/19 03:28:40;;;;;;;3.50;3.20;;;18.90;53.60;;;;;;5032659;28;20624;-70
2023/04/19 03:31:32;;;;;;;3.58;3.28;;;18.90;54.10;;;;;;5032176;28;20623;-70
2023/04/19 03:33:58;;;;;;;3.45;3.15;;;18.90;53.50;;;;;;5032478;28;20184;-70
2023/04/19 03:36:34;;;;;;;3.47;3.25;;;19.00;54.20;;;;;;5017360;28;20209;-70
2023/04/19 03:39:02;;;;;;;3.83;3.53;;;19.00;53.60;;;;;;5015884;28;20187;-70
2023/04/19 03:41:27;;;;;;;3.35;3.15;;;18.90;53.60;;;;;;5032190;28;20297;-70
2023/04/19 03:44:12;;;;;;;3.95;3.65;;;19.00;53.60;;;;;;5032442;28;20213;-70
2023/04/19 03:46:41;;;;;;;3.97;3.60;;;19.00;53.60;;;;;;5032114;28;20183;-70
2023/04/19 03:49:08;;;;;;;3.50;3.20;;;18.90;53.50;;;;;;5030293;28;20352;-70
2023/04/19 03:51:34;;;;;;;3.67;3.38;;;19.00;53.60;;;;;;5015530;28;20698;-69
2023/04/19 03:54:00;;;;;;;3.70;3.40;;;19.00;53.60;;;;;;5032068;28;20232;-70
2023/04/19 03:56:27;;;;;;;3.50;3.30;;;19.00;53.60;;;;;;5015799;28;20666;-70
2023/04/19 03:58:54;;;;;;;3.60;3.30;;;18.90;53.60;;;;;;5031829;28;20282;-70
2023/04/19 04:01:23;;;;;;;3.92;3.63;;;19.00;53.60;;;;;;5031733;28;20234;-70
2023/04/19 04:03:49;;;;;;;3.72;3.42;;;19.00;53.60;;;;;;5031658;28;20187;-70
2023/04/19 04:06:16;;;;;;;3.58;3.38;;;19.00;53.60;;;;;;5032025;28;20236;-70
2023/04/19 04:08:43;;;;;;;3.85;3.55;;;19.00;53.60;;;;;;5015092;28;20209;-70
2023/04/19 04:11:08;;;;;;;3.50;3.15;;;19.00;53.60;;;;;;5015053;28;20211;-70
2023/04/19 04:13:34;;;;;;;3.83;3.53;;;19.00;53.60;;;;;;5031425;28;20202;-70
2023/04/19 04:16:14;;;;;;;3.67;3.40;;;19.00;53.60;;;;;;5024583;28;20228;-70
2023/04/19 04:18:39;;;;;;;3.55;3.25;;;19.00;53.60;;;;;;5031642;28;20266;-70
2023/04/19 04:21:09;;;;;;;3.40;3.10;;;19.00;53.60;;;;;;5023571;28;20183;-70
2023/04/19 04:23:37;;;;;;;3.65;3.35;;;18.90;53.60;;;;;;5031685;28;20187;-70
2023/04/19 04:26:08;;;;;;;3.70;3.30;;;18.90;53.60;;;;;;5031404;28;20247;-72
2023/04/19 04:28:57;;;;;;;3.67;3.38;;;19.00;53.60;;;;;;5047149;28;20203;-70
2023/04/19 04:31:24;;;;;;;3.50;3.22;;;19.00;53.60;;;;;;5031444;28;20755;-70
2023/04/19 04:33:52;;;;;;;3.45;3.22;;;19.00;53.60;;;;;;5015077;28;20179;-70
2023/04/19 04:36:20;;;;;;;4.10;3.80;;;19.00;53.60;;;;;;5031436;28;20184;-70
2023/04/19 04:38:47;;;;;;;3.45;3.22;;;19.00;53.60;;;;;;5031424;28;20245;-70
2023/04/19 04:41:13;;;;;;;3.42;3.20;;;18.90;53.50;;;;;;5031178;28;20203;-70
2023/04/19 04:43:39;;;;;;;3.53;3.22;;;18.90;53.60;;;;;;5031036;28;20206;-70
2023/04/19 04:46:04;;;;;;;3.60;3.30;;;18.90;53.60;;;;;;5047918;28;20207;-70
2023/04/19 04:48:36;;;;;;;3.92;3.60;;;19.00;53.60;;;;;;5015495;28;20215;-70
2023/04/19 04:51:04;;;;;;;3.20;2.90;;;18.90;53.60;;;;;;5030535;28;20277;-70
2023/04/19 04:53:31;;;;;;;3.60;3.30;;;18.90;53.60;;;;;;5030918;28;20183;-70
2023/04/19 04:55:57;;;;;;;3.65;3.35;;;19.00;53.60;;;;;;5015197;28;20294;-70
2023/04/19 04:58:23;;;;;;;3.20;3.00;;;19.00;53.60;;;;;;5029549;28;20559;-70
2023/04/19 05:00:59;;;;;;;3.25;3.05;;;18.90;53.60;;;;;;5030345;28;20236;-71
2023/04/19 05:03:26;;;;;;;3.53;3.22;;;18.90;53.60;;;;;;5031111;28;20215;-71
2023/04/19 05:05:56;;;;;;;3.75;3.45;;;19.00;53.60;;;;;;5014910;28;20614;-71
2023/04/19 05:08:25;;;;;;;3.83;3.40;;;19.00;53.60;;;;;;5014953;28;20273;-71
2023/04/19 05:10:53;;;;;;;3.80;3.50;;;18.90;53.60;;;;;;5030962;28;20210;-71
2023/04/19 05:13:22;;;;;;;3.70;3.40;;;19.00;53.60;;;;;;5030918;28;20237;-71
2023/04/19 05:15:49;;;;;;;3.65;3.35;;;18.90;53.60;;;;;;5030697;28;20183;-71
2023/04/19 05:18:15;;;;;;;3.45;3.17;;;18.90;53.60;;;;;;5046502;28;20187;-70
2023/04/19 05:20:42;;;;;;;3.83;3.50;;;19.00;53.60;;;;;;5030707;28;20183;-72
2023/04/19 05:23:17;;;;;;;3.95;3.53;;;18.90;53.60;;;;;;5015369;28;20191;-71
2023/04/19 05:25:43;;;;;;;3.95;3.65;;;19.00;53.60;;;;;;5030817;28;20199;-71
2023/04/19 05:28:09;;;;;;;4.32;3.42;;;18.90;53.60;;;;;;5022610;28;20175;-71
2023/04/19 05:31:04;;;;;;;4.30;3.90;;;18.90;53.60;;;;;;5023640;28;20226;-71
2023/04/19 05:33:37;;;;;;;3.33;3.03;;;18.90;53.60;;;;;;5030670;28;20175;-71
2023/04/19 05:36:03;;;;;;;4.15;3.85;;;18.90;53.60;;;;;;5030399;28;20240;-71
2023/04/19 05:38:29;;;;;;;3.60;3.30;;;18.90;53.60;;;;;;5013822;28;20187;-71
2023/04/19 05:40:58;;;;;;;3.92;3.63;;;19.00;53.60;;;;;;5017841;28;20183;-71
2023/04/19 05:43:23;;;;;;;5.22;3.47;;;19.00;53.60;;;;;;5051100;28;20195;-71
2023/04/19 05:45:49;;;;;;;4.10;3.75;;;19.00;53.60;;;;;;5033997;28;20187;-71
2023/04/19 05:48:15;;;;;;;3.75;3.45;;;19.00;53.60;;;;;;5034322;28;20658;-71
2023/04/19 05:51:17;;;;;;;3.97;3.67;;;19.00;53.70;;;;;;5012887;28;20309;-71
2023/04/19 05:54:11;;;;;;;3.97;3.67;;;19.00;53.60;;;;;;5018265;28;20198;-71
2023/04/19 05:56:39;;;;;;;4.00;3.70;;;19.00;53.70;;;;;;5018076;28;20237;-71
2023/04/19 05:59:05;;;;;;;4.03;3.63;;;19.00;53.70;;;;;;5034263;28;20183;-71
2023/04/19 06:01:31;;;;;;;3.70;3.40;;;18.90;53.60;;;;;;5033789;28;20579;-71
2023/04/19 06:03:57;;;;;;;3.65;3.40;;;19.00;53.70;;;;;;5033797;28;20225;-71
2023/04/19 06:06:23;;;;;;;3.75;3.45;;;19.00;53.70;;;;;;5034056;28;20191;-71
2023/04/19 06:08:49;;;;;;;3.50;3.20;;;19.00;53.70;;;;;;5033746;28;20194;-71
2023/04/19 06:11:15;;;;;;;3.90;3.55;;;19.00;53.70;;;;;;5034096;28;20314;-70
2023/04/19 06:13:43;;;;;;;3.90;3.60;;;19.00;53.80;;;;;;5017207;28;20180;-71
2023/04/19 06:16:10;;;;;;;4.10;3.70;;;19.00;53.70;;;;;;5034047;28;20215;-70
2023/04/19 06:18:36;;;;;;;4.00;3.70;;;18.90;53.70;;;;;;5017471;28;20179;-71
2023/04/19 06:21:02;;;;;;;4.38;4.03;;;19.00;53.80;;;;;;5017392;28;20654;-71
2023/04/19 06:23:28;;;;;;;4.20;3.85;;;19.00;53.80;;;;;;5034678;28;20187;-71
2023/04/19 06:25:54;;;;;;;4.10;3.70;;;18.90;53.70;;;;;;5033517;28;20191;-71
2023/04/19 06:28:19;;;;;;;4.32;4.03;;;19.00;53.80;;;;;;5034807;28;20195;-71
2023/04/19 06:30:45;;;;;;;4.30;4.00;;;19.00;53.80;;;;;;5033725;28;20264;-71
2023/04/19 06:33:11;;;;;;;4.32;3.80;;;18.90;53.70;;;;;;5033091;28;20215;-71
2023/04/19 06:35:37;;;;;;;3.65;3.38;;;18.90;53.70;;;;;;5034901;28;20658;-71
2023/04/19 06:38:03;;;;;;;4.68;4.20;;;18.90;53.70;;;;;;5017253;28;20217;-71
2023/04/19 06:40:29;;;;;;;4.32;3.92;;;19.00;53.80;;;;;;5034570;28;20198;-71
2023/04/19 06:42:55;;;;;;;4.32;3.90;;;19.00;53.80;;;;;;5033322;28;20211;-71
2023/04/19 06:45:21;;;;;;;4.68;4.25;;;18.90;53.70;;;;;;5017304;28;20183;-71
2023/04/19 06:47:47;;;;;;;4.90;4.45;;;18.90;53.70;;;;;;5034506;28;20195;-71
2023/04/19 06:50:13;;;;;;;4.80;4.28;;;19.00;53.80;;;;;;5016082;28;20199;-71
2023/04/19 06:52:39;;;;;;;4.88;4.47;;;18.90;53.70;;;;;;5033816;28;20211;-71
2023/04/19 06:55:06;;;;;;;4.40;3.97;;;19.00;53.80;;;;;;5033374;28;20232;-71
2023/04/19 06:57:32;;;;;;;4.40;4.03;;;18.90;53.70;;;;;;5016834;28;20274;-71
2023/04/19 06:59:58;;;;;;;4.40;4.00;;;18.90;53.70;;;;;;5033225;28;20206;-70
2023/04/19 07:02:24;;;;;;;5.20;3.97;;;18.90;53.70;;;;;;5033978;28;20245;-71
2023/04/19 07:04:50;;;;;;;4.78;4.20;;;18.90;53.70;;;;;;5033166;28;20199;-71
2023/04/19 07:07:16;;;;;;;4.30;3.90;;;18.90;53.70;;;;;;5032844;28;20202;-71
2023/04/19 07:09:42;;;;;;;4.55;4.15;;;19.00;53.70;;;;;;5033204;28;20302;-71
2023/04/19 07:12:07;;;;;;;4.10;3.70;;;18.90;53.70;;;;;;5032502;28;20227;-71
2023/04/19 07:14:33;;;;;;;4.80;4.40;;;18.90;53.70;;;;;;5032811;28;20274;-71
2023/04/19 07:16:59;;;;;;;4.22;3.88;;;19.00;53.80;;;;;;5034083;28;20186;-71
2023/04/19 07:19:27;;;;;;;4.90;4.50;;;18.90;53.70;;;;;;5033989;28;20310;-71
2023/04/19 07:21:52;;;;;;;4.68;4.28;;;18.90;53.70;;;;;;5032592;28;20211;-71
2023/04/19 07:24:18;;;;;;;4.88;3.95;;;18.90;53.70;;;;;;5032733;28;20197;-71
2023/04/19 07:26:44;;;;;;;4.78;4.38;;;18.90;53.70;;;;;;5032672;28;20650;-71
2023/04/19 07:29:10;;;;;;;4.90;4.30;;;18.90;53.70;;;;;;5015975;28;20194;-71
2023/04/19 07:31:35;;;;;;;4.78;4.30;;;18.90;53.70;;;;;;5033635;28;20693;-71
2023/04/19 07:34:01;;;;;;;4.90;4.50;;;18.90;53.80;;;;;;5016107;28;20195;-71
2023/04/19 07:36:27;;;;;;;4.90;4.43;;;18.90;53.70;;;;;;5032495;28;20191;-71
2023/04/19 07:38:53;;;;;;;5.00;4.60;;;18.90;53.80;;;;;;5015986;28;20198;-71
2023/04/19 07:41:18;;;;;;;4.93;4.43;;;18.90;53.70;;;;;;5032160;28;20262;-71
2023/04/19 07:43:44;;;;;;;4.45;4.05;;;19.00;53.80;;;;;;5019472;28;20221;-71
2023/04/19 07:46:12;;;;;;;5.10;4.70;;;19.00;53.80;;;;;;5033306;28;20187;-71
2023/04/19 07:48:38;;;;;;;4.57;4.20;;;19.00;53.80;;;;;;4999738;28;20297;-71
2023/04/19 07:51:10;;;;;;;4.32;4.03;;;19.00;53.80;;;;;;5033103;28;20254;-71
2023/04/19 07:53:38;;;;;;;4.60;4.20;;;19.00;53.80;;;;;;5032136;28;20179;-71
2023/04/19 07:56:04;;;;;;;4.88;4.47;;;19.00;53.80;;;;;;5033165;28;20565;-71
2023/04/19 07:58:30;;;;;;;4.32;3.92;;;19.00;53.70;;;;;;5031941;28;20245;-71
2023/04/19 08:00:56;;;;;;;4.57;4.18;;;19.00;53.80;;;;;;5031809;28;20199;-71
2023/04/19 08:03:22;;;;;;;4.63;4.22;;;19.00;53.70;;;;;;5015131;28;20226;-71
2023/04/19 08:05:47;;;;;;;4.95;4.50;;;19.00;53.70;;;;;;5031711;28;20193;-71
2023/04/19 08:08:13;;;;;;;4.53;4.18;;;19.00;53.70;;;;;;5031734;28;20217;-71
2023/04/19 08:10:39;;;;;;;4.80;4.40;;;19.00;53.70;;;;;;5031757;28;20618;-71
2023/04/19 08:13:05;;;;;;;4.60;4.20;;;19.00;53.70;;;;;;5032687;28;20219;-71
2023/04/19 08:15:32;;;;;;;4.47;4.07;;;19.00;53.70;;;;;;5015302;28;20662;-71
2023/04/19 08:17:58;;;;;;;5.32;4.82;;;19.00;53.80;;;;;;5031573;28;20392;-71
2023/04/19 08:20:24;;;;;;;4.85;4.45;;;19.00;53.70;;;;;;5015593;28;20187;-71
2023/04/19 08:22:50;;;;;;;5.43;4.82;;;19.00;53.70;;;;;;5032576;28;20214;-71
2023/04/19 08:25:15;;;;;;;4.75;4.35;;;19.00;53.70;;;;;;5031524;28;20276;-71
2023/04/19 08:27:41;;;;;;;5.05;4.65;;;19.00;53.70;;;;;;5031525;28;20183;-71
2023/04/19 08:30:08;;;;;;;5.03;4.63;;;19.00;53.70;;;;;;5032575;28;20214;-71
2023/04/19 08:32:34;;;;;;;5.18;4.68;;;19.00;53.70;;;;;;5014697;28;20659;-71
2023/04/19 08:35:00;;;;;;;4.97;4.47;;;19.00;53.70;;;;;;5032410;28;20195;-71
2023/04/19 08:37:26;;;;;;;4.60;4.20;;;19.00;53.70;;;;;;5031637;28;20187;-71
2023/04/19 08:39:52;;;;;;;4.70;4.30;;;19.00;53.70;;;;;;5032316;28;20199;-71
2023/04/19 08:42:18;;;;;;;5.07;4.65;;;19.00;53.70;;;;;;5031663;28;20268;-70
2023/04/19 08:44:46;;;;;;;4.57;4.22;;;19.00;53.70;;;;;;5032584;28;20195;-71
2023/04/19 08:47:15;;;;;;;4.80;4.40;;;19.00;53.70;;;;;;5032298;28;20223;-71
2023/04/19 08:49:41;;;;;;;4.45;4.05;;;19.00;53.70;;;;;;5031426;28;20274;-71
2023/04/19 08:52:12;;;;;;;4.70;4.30;;;19.10;53.80;;;;;;5031069;28;20319;-71
2023/04/19 08:54:38;;;;;;;4.18;3.88;;;19.10;53.70;;;;;;5031227;28;20191;-70
2023/04/19 08:57:05;;;;;;;4.63;4.22;;;19.10;53.80;;;;;;5032144;28;20187;-71
2023/04/19 08:59:31;;;;;;;4.78;4.38;;;19.10;53.80;;;;;;5031036;28;20229;-71
2023/04/19 09:02:01;;;;;;;4.70;4.22;;;19.10;53.80;;;;;;5030500;28;20273;-69
2023/04/19 09:04:27;;;;;;;4.82;4.32;;;19.10;53.80;;;;;;5030978;28;20183;-71
2023/04/19 09:06:54;;;;;;;4.45;4.13;;;19.10;53.70;;;;;;5030994;28;20199;-71
2023/04/19 09:09:28;;;;;;;4.55;4.15;;;19.10;53.80;;;;;;5030877;28;20195;-71
2023/04/19 09:11:54;;;;;;;4.55;4.15;;;19.10;53.70;;;;;;5030891;28;20285;-71
2023/04/19 09:14:22;;;;;;;3.97;3.67;;;19.10;53.80;;;;;;5031561;28;20202;-70
2023/04/19 09:16:48;;;;;;;4.43;4.05;;;19.10;53.80;;;;;;5030503;28;20182;-71
2023/04/19 09:19:15;;;;;;;4.47;4.07;;;19.10;53.80;;;;;;5030659;28;20270;-71
2023/04/19 09:21:41;;;;;;;4.30;4.00;;;19.10;53.70;;;;;;5030760;28;20225;-71
2023/04/19 09:24:08;;;;;;;4.28;3.88;;;19.10;53.70;;;;;;5031716;28;20187;-71
2023/04/19 09:26:35;;;;;;;4.53;4.15;;;19.10;53.80;;;;;;5031931;28;20252;-71
2023/04/19 09:29:06;;;;;;;4.80;4.40;;;19.10;53.80;;;;;;5030676;28;20237;-70
2023/04/19 09:31:37;;;;;;;4.10;3.80;;;19.10;53.70;;;;;;5030539;28;20601;-71
2023/04/19 09:34:15;;;;;;;4.13;3.83;;;19.10;53.70;;;;;;5030361;28;20215;-71
2023/04/19 09:36:41;;;;;;;4.25;3.85;;;19.10;53.70;;;;;;5031986;28;20187;-71
2023/04/19 09:39:07;;;;;;;4.20;3.80;;;19.10;53.80;;;;;;5031684;28;20184;-71
2023/04/19 09:41:34;;;;;;;4.28;3.97;;;19.10;53.70;;;;;;5030372;28;20273;-71
2023/04/19 09:44:10;;;;;;;4.10;3.80;;;19.20;53.90;;;;;;5030570;28;20238;-69
2023/04/19 09:46:37;;;;;;;3.90;3.60;;;19.10;53.90;;;;;;5030601;28;20187;-71
2023/04/19 09:49:23;;;;;;;4.03;3.72;;;19.20;53.90;;;;;;5030512;28;20207;-71
2023/04/19 09:51:54;;;;;;;4.25;3.88;;;19.10;53.90;;;;;;5030594;28;20321;-71
2023/04/19 09:54:23;;;;;;;4.07;3.72;;;19.10;53.90;;;;;;5030279;28;20204;-71
2023/04/19 09:56:50;;;;;;;4.15;3.85;;;19.20;53.90;;;;;;5030583;28;20286;-71
2023/04/19 09:59:16;;;;;;;3.97;3.67;;;19.20;53.90;;;;;;5030300;28;20682;-71
2023/04/19 10:01:54;;;;;;;3.80;3.50;;;19.20;53.90;;;;;;5031138;28;20207;-71
2023/04/19 10:04:21;;;;;;;4.43;4.00;;;19.20;53.90;;;;;;5030065;28;20202;-71
2023/04/19 10:06:50;;;;;;;4.28;3.88;;;19.20;53.90;;;;;;5030391;28;20195;-70
2023/04/19 10:09:18;;;;;;;3.92;3.63;;;19.20;53.80;;;;;;5030608;28;20188;-71
2023/04/19 10:11:49;;;;;;;4.22;3.92;;;19.20;53.90;;;;;;5031643;28;20219;-71
2023/04/19 10:14:18;;;;;;;3.90;3.60;;;19.20;53.90;;;;;;5030161;28;20192;-71
2023/04/19 10:16:45;;;;;;;3.38;3.17;;;19.20;53.90;;;;;;5030144;28;20183;-71
2023/04/19 10:19:15;;;;;;;4.05;3.75;;;19.20;53.80;;;;;;5012055;28;20202;-71
2023/04/19 10:21:42;;;;;;;3.63;3.33;;;19.20;53.80;;;;;;5029983;28;20203;-71
2023/04/19 10:24:11;;;;;;;4.00;3.70;;;19.20;53.80;;;;;;5038702;28;20196;-71
2023/04/19 10:27:02;;;;;;;3.83;3.53;;;19.20;53.90;;;;;;5015304;28;20187;-71
2023/04/19 10:30:16;;;;;;;4.18;3.63;;;19.20;53.80;;;;;;5026795;28;20647;-71
2023/04/19 10:32:51;;;;;;;3.85;3.55;;;19.20;53.80;;;;;;5020534;28;20669;-71
2023/04/19 10:35:47;;;;;;;3.60;3.30;;;19.30;54.00;;;;;;4996477;28;20199;-71
2023/04/19 10:38:15;;;;;;;3.58;3.28;;;19.30;53.90;;;;;;5028477;28;20277;-71
2023/04/19 10:41:00;;;;;;;3.38;3.15;;;19.30;54.10;;;;;;5040163;28;20206;-71
2023/04/19 10:43:33;;;;;;;3.42;3.22;;;19.30;53.90;;;;;;5024979;28;20230;-71
2023/04/19 10:46:21;;;;;;;4.28;3.40;;;19.30;53.90;;;;;;5033405;28;20195;-71
2023/04/19 10:49:00;;;;;;;3.80;3.50;;;19.30;53.90;;;;;;5027124;28;20678;-71
2023/04/19 10:51:37;;;;;;;4.20;3.80;;;19.30;53.90;;;;;;5034325;28;20269;-71
2023/04/19 10:54:06;;;;;;;3.40;3.20;;;19.30;53.90;;;;;;5034597;28;20248;-70
2023/04/19 10:56:32;;;;;;;3.42;3.22;;;19.30;54.00;;;;;;5033330;28;20190;-71
2023/04/19 10:59:00;;;;;;;3.63;3.33;;;19.30;54.00;;;;;;5033298;28;20274;-71
2023/04/19 11:01:48;;;;;;;4.15;3.75;;;19.40;54.00;;;;;;5032968;28;20209;-72
2023/04/19 11:04:14;;;;;;;3.53;3.22;;;19.30;54.00;;;;;;5033129;28;20202;-73
2023/04/19 11:06:50;;;;;;;3.78;3.47;;;19.30;54.00;;;;;;5034301;28;20187;-72
2023/04/19 11:09:37;;;;;;;3.40;3.10;;;19.40;54.30;;;;;;5034121;28;20273;-72
2023/04/19 11:12:18;;;;;;;3.92;3.63;;;19.40;54.30;;;;;;5032866;28;20219;-73
2023/04/19 11:14:53;;;;;;;3.72;3.42;;;19.40;54.30;;;;;;5032947;28;20191;-73
2023/04/19 11:17:26;;;;;;;4.13;3.83;;;19.30;54.10;;;;;;5033965;28;20274;-73
2023/04/19 11:20:09;;;;;;;3.97;3.60;;;19.40;54.10;;;;;;5032857;28;20257;-73
2023/04/19 11:22:40;;;;;;;3.40;3.10;;;19.30;54.00;;;;;;5029314;28;20208;-73
2023/04/19 11:25:19;;;;;;;3.92;3.22;;;19.30;54.10;;;;;;5029504;28;20277;-73
2023/04/19 11:27:51;;;;;;;3.75;3.20;;;19.30;54.00;;;;;;5016522;28;20207;-73
2023/04/19 11:30:21;;;;;;;3.60;3.30;;;19.40;54.10;;;;;;5033759;28;20206;-72
2023/04/19 11:32:55;;;;;;;3.72;3.42;;;19.30;54.30;;;;;;5032647;28;20207;-73
2023/04/19 11:35:23;;;;;;;3.72;3.38;;;19.30;54.00;;;;;;5032537;28;20596;-73
2023/04/19 11:37:51;;;;;;;3.75;3.35;;;19.40;54.10;;;;;;5033402;28;20183;-72
2023/04/19 11:40:19;;;;;;;3.60;3.30;;;19.30;54.00;;;;;;5032360;28;20743;-73
2023/04/19 11:42:45;;;;;;;4.00;3.70;;;19.40;54.20;;;;;;5032143;28;20203;-73
2023/04/19 11:45:24;;;;;;;3.90;3.50;;;19.30;54.00;;;;;;5033784;28;20244;-73
2023/04/19 11:47:50;;;;;;;3.13;2.92;;;19.30;54.00;;;;;;5032152;28;20202;-72
2023/04/19 11:50:48;;;;;;;4.05;3.20;;;19.30;54.00;;;;;;5033354;28;20277;-72
2023/04/19 11:53:23;;;;;;;3.63;3.20;;;19.30;54.00;;;;;;5024177;28;20219;-72
2023/04/19 11:56:06;;;;;;;3.20;3.00;;;19.30;54.20;;;;;;5032161;28;20182;-72
2023/04/19 11:58:46;;;;;;;3.50;3.20;;;19.30;54.00;;;;;;5040388;28;20183;-72
2023/04/19 12:01:20;;;;;;;3.15;2.95;;;19.30;54.00;;;;;;5031877;28;20207;-73
2023/04/19 12:03:51;;;;;;;3.40;3.10;;;19.40;54.20;;;;;;5032193;28;20195;-72
2023/04/19 12:06:25;;;;;;;4.20;3.20;;;19.30;54.00;;;;;;5033033;28;20195;-72
2023/04/19 12:08:53;;;;;;;3.78;3.47;;;19.30;54.10;;;;;;5032036;28;20187;-72
2023/04/19 12:11:40;;;;;;;3.72;3.42;;;19.30;54.00;;;;;;5031526;28;20211;-73
2023/04/19 12:14:15;;;;;;;3.60;3.30;;;19.30;54.20;;;;;;5031984;28;20195;-72
2023/04/19 12:16:43;;;;;;;3.70;3.40;;;19.30;54.10;;;;;;5024721;28;20191;-72
2023/04/19 12:19:19;;;;;;;3.40;3.10;;;19.30;54.60;;;;;;5031465;28;20196;-73
2023/04/19 12:21:46;;;;;;;3.25;3.05;;;19.30;54.10;;;;;;5031626;28;20207;-73
2023/04/19 12:24:15;;;;;;;3.78;3.47;;;19.30;54.10;;;;;;5031722;28;20195;-73
2023/04/19 12:26:59;;;;;;;3.38;3.08;;;19.30;54.00;;;;;;5031874;28;20199;-73
2023/04/19 12:29:26;;;;;;;3.38;3.10;;;19.30;54.10;;;;;;5031890;28;20195;-73
2023/04/19 12:31:52;;;;;;;3.50;3.20;;;19.30;54.10;;;;;;5031542;28;20222;-73
2023/04/19 12:34:17;;;;;;;3.05;2.85;;;19.30;54.10;;;;;;5031552;28;20194;-73
2023/04/19 12:36:43;;;;;;;4.07;3.35;;;19.30;54.10;;;;;;5031617;28;20191;-73
2023/04/19 12:39:09;;;;;;;3.58;3.28;;;19.30;54.20;;;;;;5032378;28;20240;-75
2023/04/19 12:41:35;;;;;;;3.13;2.92;;;19.30;54.10;;;;;;5022996;28;20207;-73
2023/04/19 12:44:00;;;;;;;3.40;3.10;;;19.30;54.20;;;;;;5032499;28;20191;-73
2023/04/19 12:46:26;;;;;;;3.63;3.33;;;19.30;54.20;;;;;;5031369;28;20202;-73
2023/04/19 12:48:52;;;;;;;3.50;3.20;;;19.30;54.10;;;;;;5014186;28;20230;-73
2023/04/19 12:51:17;;;;;;;3.35;3.13;;;19.30;54.20;;;;;;5032302;28;20222;-73
2023/04/19 12:53:48;;;;;;;3.95;3.55;;;19.30;54.20;;;;;;5032469;28;20202;-73
2023/04/19 12:56:14;;;;;;;3.78;3.47;;;19.30;54.20;;;;;;5031102;28;20226;-73